sensor_id;sensor_type;location;lat;lon;timestamp;P1;durP1;ratioP1;P2;durP2;ratioP2
77722;SDS011;67811;42.656;23.394;2023-11-18T00:01:32;2.40;;;1.20;;
77722;SDS011;67811;42.656;23.394;2023-11-18T00:05:38;2.10;;;1.00;;
77722;SDS011;67811;42.656;23.394;2023-11-18T00:09:43;1.43;;;0.90;;
77722;SDS011;67811;42.656;23.394;2023-11-18T00:13:48;1.17;;;0.70;;
77722;SDS011;67811;42.656;23.394;2023-11-18T00:17:54;2.07;;;0.90;;
77722;SDS011;67811;42.656;23.394;2023-11-18T00:21:59;1.23;;;0.70;;
77722;SDS011;67811;42.656;23.394;2023-11-18T00:26:04;1.67;;;0.83;;
77722;SDS011;67811;42.656;23.394;2023-11-18T00:30:10;3.00;;;1.30;;
77722;SDS011;67811;42.656;23.394;2023-11-18T00:34:15;1.27;;;0.70;;
77722;SDS011;67811;42.656;23.394;2023-11-18T00:38:20;1.50;;;0.60;;
77722;SDS011;67811;42.656;23.394;2023-11-18T00:42:26;1.53;;;0.70;;
77722;SDS011;67811;42.656;23.394;2023-11-18T00:46:31;2.37;;;1.10;;
77722;SDS011;67811;42.656;23.394;2023-11-18T00:50:36;1.83;;;0.87;;
77722;SDS011;67811;42.656;23.394;2023-11-18T00:54:42;2.30;;;1.13;;
77722;SDS011;67811;42.656;23.394;2023-11-18T00:58:47;1.47;;;0.80;;
77722;SDS011;67811;42.656;23.394;2023-11-18T01:02:53;3.17;;;1.10;;
77722;SDS011;67811;42.656;23.394;2023-11-18T01:06:58;2.10;;;1.13;;
77722;SDS011;67811;42.656;23.394;2023-11-18T01:11:04;1.90;;;1.10;;
77722;SDS011;67811;42.656;23.394;2023-11-18T01:15:09;2.23;;;1.00;;
77722;SDS011;67811;42.656;23.394;2023-11-18T01:19:15;2.00;;;1.00;;
77722;SDS011;67811;42.656;23.394;2023-11-18T01:23:20;1.90;;;1.20;;
77722;SDS011;67811;42.656;23.394;2023-11-18T01:27:25;2.40;;;1.20;;
77722;SDS011;67811;42.656;23.394;2023-11-18T01:31:30;2.40;;;1.20;;
77722;SDS011;67811;42.656;23.394;2023-11-18T01:35:36;3.43;;;1.63;;
77722;SDS011;67811;42.656;23.394;2023-11-18T01:39:41;2.97;;;1.40;;
77722;SDS011;67811;42.656;23.394;2023-11-18T01:43:47;2.63;;;1.47;;
77722;SDS011;67811;42.656;23.394;2023-11-18T01:47:52;2.90;;;1.43;;
77722;SDS011;67811;42.656;23.394;2023-11-18T01:51:58;4.40;;;1.92;;
77722;SDS011;67811;42.656;23.394;2023-11-18T01:56:03;2.67;;;1.30;;
77722;SDS011;67811;42.656;23.394;2023-11-18T02:00:09;2.88;;;1.30;;
77722;SDS011;67811;42.656;23.394;2023-11-18T02:04:15;2.28;;;1.30;;
77722;SDS011;67811;42.656;23.394;2023-11-18T02:08:21;3.07;;;1.43;;
77722;SDS011;67811;42.656;23.394;2023-11-18T02:12:31;3.00;;;1.60;;
77722;SDS011;67811;42.656;23.394;2023-11-18T02:16:49;2.90;;;1.70;;
77722;SDS011;67811;42.656;23.394;2023-11-18T02:20:57;2.60;;;1.42;;
77722;SDS011;67811;42.656;23.394;2023-11-18T02:25:04;2.35;;;1.17;;
77722;SDS011;67811;42.656;23.394;2023-11-18T02:29:12;2.60;;;1.27;;
77722;SDS011;67811;42.656;23.394;2023-11-18T02:37:47;3.35;;;1.90;;
77722;SDS011;67811;42.656;23.394;2023-11-18T02:41:54;3.35;;;1.80;;
77722;SDS011;67811;42.656;23.394;2023-11-18T02:46:03;3.40;;;2.00;;
77722;SDS011;67811;42.656;23.394;2023-11-18T02:50:10;3.33;;;1.58;;
77722;SDS011;67811;42.656;23.394;2023-11-18T02:54:15;2.72;;;1.52;;
77722;SDS011;67811;42.656;23.394;2023-11-18T02:58:21;3.60;;;2.07;;
77722;SDS011;67811;42.656;23.394;2023-11-18T03:02:27;4.20;;;2.40;;
77722;SDS011;67811;42.656;23.394;2023-11-18T03:06:32;3.60;;;2.00;;
77722;SDS011;67811;42.656;23.394;2023-11-18T03:10:37;4.33;;;2.73;;
77722;SDS011;67811;42.656;23.394;2023-11-18T03:14:44;3.85;;;2.42;;
77722;SDS011;67811;42.656;23.394;2023-11-18T03:18:49;5.07;;;3.07;;
77722;SDS011;67811;42.656;23.394;2023-11-18T03:22:55;4.20;;;2.88;;
77722;SDS011;67811;42.656;23.394;2023-11-18T03:27:00;4.50;;;2.80;;
77722;SDS011;67811;42.656;23.394;2023-11-18T03:31:06;3.67;;;2.50;;
77722;SDS011;67811;42.656;23.394;2023-11-18T03:35:11;3.90;;;2.10;;
77722;SDS011;67811;42.656;23.394;2023-11-18T03:39:17;4.53;;;2.65;;
77722;SDS011;67811;42.656;23.394;2023-11-18T03:43:22;2.93;;;1.83;;
77722;SDS011;67811;42.656;23.394;2023-11-18T03:47:27;3.83;;;2.47;;
77722;SDS011;67811;42.656;23.394;2023-11-18T03:51:33;4.23;;;2.93;;
77722;SDS011;67811;42.656;23.394;2023-11-18T03:55:38;4.27;;;2.90;;
77722;SDS011;67811;42.656;23.394;2023-11-18T03:59:43;4.37;;;2.47;;
77722;SDS011;67811;42.656;23.394;2023-11-18T04:03:49;5.00;;;3.10;;
77722;SDS011;67811;42.656;23.394;2023-11-18T04:07:54;5.00;;;3.40;;
77722;SDS011;67811;42.656;23.394;2023-11-18T04:11:59;4.60;;;3.07;;
77722;SDS011;67811;42.656;23.394;2023-11-18T04:16:05;4.10;;;2.77;;
77722;SDS011;67811;42.656;23.394;2023-11-18T04:20:10;3.38;;;1.88;;
77722;SDS011;67811;42.656;23.394;2023-11-18T04:24:16;4.93;;;2.55;;
77722;SDS011;67811;42.656;23.394;2023-11-18T04:28:21;4.33;;;3.07;;
77722;SDS011;67811;42.656;23.394;2023-11-18T04:32:27;3.90;;;1.80;;
77722;SDS011;67811;42.656;23.394;2023-11-18T04:36:32;3.07;;;2.20;;
77722;SDS011;67811;42.656;23.394;2023-11-18T04:40:37;4.70;;;3.03;;
77722;SDS011;67811;42.656;23.394;2023-11-18T04:44:43;3.07;;;1.87;;
77722;SDS011;67811;42.656;23.394;2023-11-18T04:48:48;4.57;;;2.53;;
77722;SDS011;67811;42.656;23.394;2023-11-18T04:52:53;2.63;;;1.63;;
77722;SDS011;67811;42.656;23.394;2023-11-18T04:56:58;3.80;;;2.20;;
77722;SDS011;67811;42.656;23.394;2023-11-18T05:01:04;3.53;;;2.57;;
77722;SDS011;67811;42.656;23.394;2023-11-18T05:05:09;4.43;;;2.33;;
77722;SDS011;67811;42.656;23.394;2023-11-18T05:09:14;3.87;;;2.73;;
77722;SDS011;67811;42.656;23.394;2023-11-18T05:13:20;3.50;;;2.13;;
77722;SDS011;67811;42.656;23.394;2023-11-18T05:17:25;3.83;;;2.27;;
77722;SDS011;67811;42.656;23.394;2023-11-18T05:21:31;4.60;;;3.08;;
77722;SDS011;67811;42.656;23.394;2023-11-18T05:25:38;3.80;;;2.00;;
77722;SDS011;67811;42.656;23.394;2023-11-18T05:29:45;3.97;;;2.40;;
77722;SDS011;67811;42.656;23.394;2023-11-18T05:33:50;3.97;;;2.60;;
77722;SDS011;67811;42.656;23.394;2023-11-18T05:37:55;3.60;;;2.17;;
77722;SDS011;67811;42.656;23.394;2023-11-18T05:42:01;3.23;;;2.00;;
77722;SDS011;67811;42.656;23.394;2023-11-18T05:46:06;3.47;;;1.87;;
77722;SDS011;67811;42.656;23.394;2023-11-18T05:50:11;3.35;;;1.67;;
77722;SDS011;67811;42.656;23.394;2023-11-18T05:54:17;2.20;;;1.20;;
77722;SDS011;67811;42.656;23.394;2023-11-18T05:58:22;3.00;;;1.70;;
77722;SDS011;67811;42.656;23.394;2023-11-18T06:02:28;3.20;;;1.63;;
77722;SDS011;67811;42.656;23.394;2023-11-18T06:06:33;2.67;;;1.60;;
77722;SDS011;67811;42.656;23.394;2023-11-18T06:10:39;2.50;;;1.40;;
77722;SDS011;67811;42.656;23.394;2023-11-18T06:14:44;2.77;;;1.47;;
77722;SDS011;67811;42.656;23.394;2023-11-18T06:18:52;2.25;;;1.20;;
77722;SDS011;67811;42.656;23.394;2023-11-18T06:23:01;3.22;;;1.40;;
77722;SDS011;67811;42.656;23.394;2023-11-18T06:27:06;3.07;;;1.10;;
77722;SDS011;67811;42.656;23.394;2023-11-18T06:31:12;2.10;;;0.98;;
77722;SDS011;67811;42.656;23.394;2023-11-18T06:35:17;2.75;;;1.55;;
77722;SDS011;67811;42.656;23.394;2023-11-18T06:39:22;2.37;;;1.03;;
77722;SDS011;67811;42.656;23.394;2023-11-18T06:43:28;1.63;;;0.93;;
77722;SDS011;67811;42.656;23.394;2023-11-18T06:47:34;3.47;;;1.30;;
77722;SDS011;67811;42.656;23.394;2023-11-18T06:51:39;2.03;;;1.00;;
77722;SDS011;67811;42.656;23.394;2023-11-18T06:55:45;2.40;;;1.00;;
77722;SDS011;67811;42.656;23.394;2023-11-18T06:59:50;1.90;;;1.10;;
77722;SDS011;67811;42.656;23.394;2023-11-18T07:03:55;2.37;;;1.00;;
77722;SDS011;67811;42.656;23.394;2023-11-18T07:08:01;1.83;;;1.00;;
77722;SDS011;67811;42.656;23.394;2023-11-18T07:12:06;1.83;;;0.80;;
77722;SDS011;67811;42.656;23.394;2023-11-18T07:16:11;1.97;;;0.87;;
77722;SDS011;67811;42.656;23.394;2023-11-18T07:20:17;1.77;;;0.83;;
77722;SDS011;67811;42.656;23.394;2023-11-18T07:24:22;1.60;;;0.73;;
77722;SDS011;67811;42.656;23.394;2023-11-18T07:28:27;2.60;;;1.10;;
77722;SDS011;67811;42.656;23.394;2023-11-18T07:32:33;1.10;;;0.60;;
77722;SDS011;67811;42.656;23.394;2023-11-18T07:36:38;2.83;;;1.03;;
77722;SDS011;67811;42.656;23.394;2023-11-18T07:40:43;1.93;;;0.90;;
77722;SDS011;67811;42.656;23.394;2023-11-18T07:44:48;2.83;;;0.90;;
77722;SDS011;67811;42.656;23.394;2023-11-18T07:48:54;2.10;;;1.07;;
77722;SDS011;67811;42.656;23.394;2023-11-18T07:52:59;1.83;;;1.00;;
77722;SDS011;67811;42.656;23.394;2023-11-18T07:57:04;2.20;;;1.00;;
77722;SDS011;67811;42.656;23.394;2023-11-18T08:01:09;2.10;;;1.00;;
77722;SDS011;67811;42.656;23.394;2023-11-18T08:05:15;2.27;;;0.97;;
77722;SDS011;67811;42.656;23.394;2023-11-18T08:09:20;3.00;;;1.07;;
77722;SDS011;67811;42.656;23.394;2023-11-18T08:13:25;2.37;;;1.07;;
77722;SDS011;67811;42.656;23.394;2023-11-18T08:17:31;3.10;;;1.23;;
77722;SDS011;67811;42.656;23.394;2023-11-18T08:21:36;2.20;;;0.87;;
77722;SDS011;67811;42.656;23.394;2023-11-18T08:25:41;2.90;;;1.13;;
77722;SDS011;67811;42.656;23.394;2023-11-18T08:29:47;3.93;;;1.30;;
77722;SDS011;67811;42.656;23.394;2023-11-18T08:33:52;2.67;;;1.33;;
77722;SDS011;67811;42.656;23.394;2023-11-18T08:37:57;2.07;;;0.90;;
77722;SDS011;67811;42.656;23.394;2023-11-18T08:42:03;3.97;;;1.13;;
77722;SDS011;67811;42.656;23.394;2023-11-18T08:46:08;4.28;;;1.55;;
77722;SDS011;67811;42.656;23.394;2023-11-18T08:50:14;2.37;;;1.20;;
77722;SDS011;67811;42.656;23.394;2023-11-18T08:54:22;4.53;;;1.48;;
77722;SDS011;67811;42.656;23.394;2023-11-18T08:58:27;2.90;;;1.40;;
77722;SDS011;67811;42.656;23.394;2023-11-18T09:02:33;2.40;;;1.33;;
77722;SDS011;67811;42.656;23.394;2023-11-18T09:06:38;2.40;;;1.20;;
77722;SDS011;67811;42.656;23.394;2023-11-18T09:10:43;2.70;;;1.30;;
77722;SDS011;67811;42.656;23.394;2023-11-18T09:14:48;2.43;;;1.30;;
77722;SDS011;67811;42.656;23.394;2023-11-18T09:18:54;2.70;;;1.20;;
77722;SDS011;67811;42.656;23.394;2023-11-18T09:22:59;3.47;;;1.55;;
77722;SDS011;67811;42.656;23.394;2023-11-18T09:27:05;2.50;;;1.40;;
77722;SDS011;67811;42.656;23.394;2023-11-18T09:31:10;3.07;;;1.37;;
77722;SDS011;67811;42.656;23.394;2023-11-18T09:35:15;2.93;;;1.40;;
77722;SDS011;67811;42.656;23.394;2023-11-18T09:39:21;3.43;;;1.30;;
77722;SDS011;67811;42.656;23.394;2023-11-18T09:43:26;3.13;;;1.30;;
77722;SDS011;67811;42.656;23.394;2023-11-18T09:47:33;2.20;;;1.20;;
77722;SDS011;67811;42.656;23.394;2023-11-18T09:51:42;2.55;;;1.30;;
77722;SDS011;67811;42.656;23.394;2023-11-18T09:55:49;2.95;;;1.38;;
77722;SDS011;67811;42.656;23.394;2023-11-18T10:00:19;3.83;;;1.60;;
77722;SDS011;67811;42.656;23.394;2023-11-18T10:04:24;5.17;;;1.67;;
77722;SDS011;67811;42.656;23.394;2023-11-18T10:08:30;1.97;;;1.03;;
77722;SDS011;67811;42.656;23.394;2023-11-18T10:12:36;2.00;;;1.10;;
77722;SDS011;67811;42.656;23.394;2023-11-18T10:16:44;2.93;;;1.40;;
77722;SDS011;67811;42.656;23.394;2023-11-18T10:20:50;1.48;;;0.90;;
77722;SDS011;67811;42.656;23.394;2023-11-18T10:24:56;3.00;;;1.10;;
77722;SDS011;67811;42.656;23.394;2023-11-18T10:29:02;4.38;;;1.63;;
77722;SDS011;67811;42.656;23.394;2023-11-18T10:33:08;2.25;;;1.27;;
77722;SDS011;67811;42.656;23.394;2023-11-18T10:37:14;3.92;;;1.50;;
77722;SDS011;67811;42.656;23.394;2023-11-18T10:41:19;2.10;;;1.23;;
77722;SDS011;67811;42.656;23.394;2023-11-18T10:45:24;3.20;;;1.30;;
77722;SDS011;67811;42.656;23.394;2023-11-18T10:49:31;3.93;;;1.50;;
77722;SDS011;67811;42.656;23.394;2023-11-18T10:53:37;2.25;;;1.20;;
77722;SDS011;67811;42.656;23.394;2023-11-18T10:57:43;3.50;;;1.38;;
77722;SDS011;67811;42.656;23.394;2023-11-18T11:01:48;3.00;;;1.43;;
77722;SDS011;67811;42.656;23.394;2023-11-18T11:05:54;3.87;;;1.23;;
77722;SDS011;67811;42.656;23.394;2023-11-18T11:10:00;4.78;;;1.45;;
77722;SDS011;67811;42.656;23.394;2023-11-18T11:14:05;2.78;;;1.13;;
77722;SDS011;67811;42.656;23.394;2023-11-18T11:18:13;3.55;;;1.50;;
77722;SDS011;67811;42.656;23.394;2023-11-18T11:22:24;3.13;;;1.20;;
77722;SDS011;67811;42.656;23.394;2023-11-18T11:26:56;3.13;;;1.40;;
77722;SDS011;67811;42.656;23.394;2023-11-18T11:31:15;2.08;;;1.00;;
77722;SDS011;67811;42.656;23.394;2023-11-18T11:35:36;4.30;;;1.25;;
77722;SDS011;67811;42.656;23.394;2023-11-18T11:39:43;2.35;;;1.25;;
77722;SDS011;67811;42.656;23.394;2023-11-18T11:43:49;1.98;;;1.23;;
77722;SDS011;67811;42.656;23.394;2023-11-18T11:47:57;4.65;;;1.50;;
77722;SDS011;67811;42.656;23.394;2023-11-18T11:56:40;2.38;;;1.05;;
77722;SDS011;67811;42.656;23.394;2023-11-18T12:00:50;3.50;;;1.38;;
77722;SDS011;67811;42.656;23.394;2023-11-18T12:04:56;3.00;;;1.30;;
77722;SDS011;67811;42.656;23.394;2023-11-18T12:09:02;2.47;;;1.20;;
77722;SDS011;67811;42.656;23.394;2023-11-18T12:13:08;2.85;;;1.17;;
77722;SDS011;67811;42.656;23.394;2023-11-18T12:17:15;2.53;;;1.30;;
77722;SDS011;67811;42.656;23.394;2023-11-18T12:21:53;2.13;;;1.10;;
77722;SDS011;67811;42.656;23.394;2023-11-18T12:26:00;3.13;;;1.80;;
77722;SDS011;67811;42.656;23.394;2023-11-18T12:34:19;3.50;;;1.70;;
77722;SDS011;67811;42.656;23.394;2023-11-18T12:43:07;3.97;;;1.58;;
77722;SDS011;67811;42.656;23.394;2023-11-18T12:47:12;3.10;;;1.50;;
77722;SDS011;67811;42.656;23.394;2023-11-18T12:51:21;2.75;;;1.63;;
77722;SDS011;67811;42.656;23.394;2023-11-18T12:55:27;4.80;;;1.85;;
77722;SDS011;67811;42.656;23.394;2023-11-18T12:59:33;3.42;;;1.75;;
77722;SDS011;67811;42.656;23.394;2023-11-18T13:03:39;2.97;;;1.88;;
77722;SDS011;67811;42.656;23.394;2023-11-18T13:07:47;3.15;;;1.60;;
77722;SDS011;67811;42.656;23.394;2023-11-18T13:11:53;3.63;;;2.20;;
77722;SDS011;67811;42.656;23.394;2023-11-18T13:15:59;3.35;;;1.63;;
77722;SDS011;67811;42.656;23.394;2023-11-18T13:20:14;3.85;;;1.80;;
77722;SDS011;67811;42.656;23.394;2023-11-18T13:24:19;3.63;;;2.30;;
77722;SDS011;67811;42.656;23.394;2023-11-18T13:28:25;3.47;;;1.90;;
77722;SDS011;67811;42.656;23.394;2023-11-18T13:32:30;3.95;;;2.42;;
77722;SDS011;67811;42.656;23.394;2023-11-18T13:36:36;2.87;;;1.60;;
77722;SDS011;67811;42.656;23.394;2023-11-18T13:40:42;4.07;;;2.03;;
77722;SDS011;67811;42.656;23.394;2023-11-18T13:44:51;4.03;;;2.45;;
77722;SDS011;67811;42.656;23.394;2023-11-18T13:48:56;3.73;;;2.40;;
77722;SDS011;67811;42.656;23.394;2023-11-18T13:53:02;3.45;;;2.50;;
77722;SDS011;67811;42.656;23.394;2023-11-18T13:57:08;3.00;;;1.35;;
77722;SDS011;67811;42.656;23.394;2023-11-18T14:01:14;4.20;;;2.47;;
77722;SDS011;67811;42.656;23.394;2023-11-18T14:05:20;5.57;;;2.75;;
77722;SDS011;67811;42.656;23.394;2023-11-18T14:09:26;2.95;;;1.95;;
77722;SDS011;67811;42.656;23.394;2023-11-18T14:13:32;3.90;;;2.33;;
77722;SDS011;67811;42.656;23.394;2023-11-18T14:17:37;4.53;;;2.72;;
77722;SDS011;67811;42.656;23.394;2023-11-18T14:21:42;4.13;;;2.67;;
77722;SDS011;67811;42.656;23.394;2023-11-18T14:25:48;5.50;;;2.50;;
77722;SDS011;67811;42.656;23.394;2023-11-18T14:29:53;3.25;;;2.10;;
77722;SDS011;67811;42.656;23.394;2023-11-18T14:33:59;4.23;;;2.77;;
77722;SDS011;67811;42.656;23.394;2023-11-18T14:38:04;3.60;;;2.50;;
77722;SDS011;67811;42.656;23.394;2023-11-18T14:42:10;4.10;;;2.87;;
77722;SDS011;67811;42.656;23.394;2023-11-18T14:46:15;5.63;;;3.47;;
77722;SDS011;67811;42.656;23.394;2023-11-18T14:50:20;5.33;;;3.43;;
77722;SDS011;67811;42.656;23.394;2023-11-18T14:54:27;5.93;;;2.95;;
77722;SDS011;67811;42.656;23.394;2023-11-18T14:58:32;3.97;;;2.47;;
77722;SDS011;67811;42.656;23.394;2023-11-18T15:02:37;4.10;;;2.43;;
77722;SDS011;67811;42.656;23.394;2023-11-18T15:06:43;5.23;;;2.97;;
77722;SDS011;67811;42.656;23.394;2023-11-18T15:10:48;4.63;;;2.60;;
77722;SDS011;67811;42.656;23.394;2023-11-18T15:14:54;5.90;;;2.88;;
77722;SDS011;67811;42.656;23.394;2023-11-18T15:18:59;3.27;;;2.13;;
77722;SDS011;67811;42.656;23.394;2023-11-18T15:23:04;5.57;;;3.50;;
77722;SDS011;67811;42.656;23.394;2023-11-18T15:27:10;5.73;;;3.50;;
77722;SDS011;67811;42.656;23.394;2023-11-18T15:31:15;4.07;;;2.73;;
77722;SDS011;67811;42.656;23.394;2023-11-18T15:35:20;4.97;;;2.37;;
77722;SDS011;67811;42.656;23.394;2023-11-18T15:39:26;4.23;;;2.87;;
77722;SDS011;67811;42.656;23.394;2023-11-18T15:43:31;3.80;;;1.97;;
77722;SDS011;67811;42.656;23.394;2023-11-18T15:47:40;3.03;;;2.20;;
77722;SDS011;67811;42.656;23.394;2023-11-18T15:51:46;5.00;;;2.90;;
77722;SDS011;67811;42.656;23.394;2023-11-18T15:55:51;4.87;;;2.63;;
77722;SDS011;67811;42.656;23.394;2023-11-18T15:59:57;5.23;;;2.57;;
77722;SDS011;67811;42.656;23.394;2023-11-18T16:04:02;4.17;;;1.83;;
77722;SDS011;67811;42.656;23.394;2023-11-18T16:08:07;4.70;;;3.05;;
77722;SDS011;67811;42.656;23.394;2023-11-18T16:12:13;2.37;;;1.60;;
77722;SDS011;67811;42.656;23.394;2023-11-18T16:16:18;3.30;;;1.90;;
77722;SDS011;67811;42.656;23.394;2023-11-18T16:20:27;5.10;;;3.07;;
77722;SDS011;67811;42.656;23.394;2023-11-18T16:24:34;4.60;;;2.78;;
77722;SDS011;67811;42.656;23.394;2023-11-18T16:28:39;5.60;;;3.33;;
77722;SDS011;67811;42.656;23.394;2023-11-18T16:32:44;3.77;;;2.00;;
77722;SDS011;67811;42.656;23.394;2023-11-18T16:36:50;5.43;;;2.50;;
77722;SDS011;67811;42.656;23.394;2023-11-18T16:40:55;4.80;;;2.97;;
77722;SDS011;67811;42.656;23.394;2023-11-18T16:45:00;4.13;;;2.20;;
77722;SDS011;67811;42.656;23.394;2023-11-18T16:49:06;5.07;;;2.53;;
77722;SDS011;67811;42.656;23.394;2023-11-18T16:53:12;4.97;;;2.42;;
77722;SDS011;67811;42.656;23.394;2023-11-18T16:57:17;4.43;;;2.03;;
77722;SDS011;67811;42.656;23.394;2023-11-18T17:01:22;4.20;;;2.73;;
77722;SDS011;67811;42.656;23.394;2023-11-18T17:05:27;5.57;;;2.30;;
77722;SDS011;67811;42.656;23.394;2023-11-18T17:09:33;5.17;;;3.00;;
77722;SDS011;67811;42.656;23.394;2023-11-18T17:13:38;3.77;;;2.07;;
77722;SDS011;67811;42.656;23.394;2023-11-18T17:17:44;4.43;;;2.83;;
77722;SDS011;67811;42.656;23.394;2023-11-18T17:21:51;4.40;;;2.38;;
77722;SDS011;67811;42.656;23.394;2023-11-18T17:25:56;5.87;;;2.00;;
77722;SDS011;67811;42.656;23.394;2023-11-18T17:30:05;4.63;;;2.30;;
77722;SDS011;67811;42.656;23.394;2023-11-18T17:34:11;3.95;;;2.05;;
77722;SDS011;67811;42.656;23.394;2023-11-18T17:38:16;2.50;;;1.53;;
77722;SDS011;67811;42.656;23.394;2023-11-18T17:42:21;5.07;;;2.23;;
77722;SDS011;67811;42.656;23.394;2023-11-18T17:46:27;3.77;;;2.40;;
77722;SDS011;67811;42.656;23.394;2023-11-18T17:50:32;4.00;;;1.73;;
77722;SDS011;67811;42.656;23.394;2023-11-18T17:54:37;5.73;;;2.27;;
77722;SDS011;67811;42.656;23.394;2023-11-18T17:58:43;3.90;;;2.50;;
77722;SDS011;67811;42.656;23.394;2023-11-18T18:02:48;4.43;;;2.30;;
77722;SDS011;67811;42.656;23.394;2023-11-18T18:06:54;5.95;;;2.30;;
77722;SDS011;67811;42.656;23.394;2023-11-18T18:11:00;4.37;;;2.50;;
77722;SDS011;67811;42.656;23.394;2023-11-18T18:15:05;4.60;;;2.70;;
77722;SDS011;67811;42.656;23.394;2023-11-18T18:19:11;4.47;;;2.67;;
77722;SDS011;67811;42.656;23.394;2023-11-18T18:23:16;5.67;;;2.20;;
77722;SDS011;67811;42.656;23.394;2023-11-18T18:27:21;3.87;;;2.13;;
77722;SDS011;67811;42.656;23.394;2023-11-18T18:31:27;4.60;;;2.10;;
77722;SDS011;67811;42.656;23.394;2023-11-18T18:35:32;5.90;;;2.93;;
77722;SDS011;67811;42.656;23.394;2023-11-18T18:39:37;1.93;;;1.03;;
77722;SDS011;67811;42.656;23.394;2023-11-18T18:43:42;4.33;;;2.30;;
77722;SDS011;67811;42.656;23.394;2023-11-18T18:47:48;4.23;;;2.20;;
77722;SDS011;67811;42.656;23.394;2023-11-18T18:51:53;5.27;;;2.63;;
77722;SDS011;67811;42.656;23.394;2023-11-18T18:55:59;4.43;;;2.30;;
77722;SDS011;67811;42.656;23.394;2023-11-18T19:00:04;4.30;;;1.73;;
77722;SDS011;67811;42.656;23.394;2023-11-18T19:04:10;2.85;;;1.75;;
77722;SDS011;67811;42.656;23.394;2023-11-18T19:08:16;4.03;;;2.40;;
77722;SDS011;67811;42.656;23.394;2023-11-18T19:12:21;4.93;;;2.30;;
77722;SDS011;67811;42.656;23.394;2023-11-18T19:16:26;3.10;;;1.90;;
77722;SDS011;67811;42.656;23.394;2023-11-18T19:20:32;4.07;;;2.10;;
77722;SDS011;67811;42.656;23.394;2023-11-18T19:24:37;3.67;;;2.27;;
77722;SDS011;67811;42.656;23.394;2023-11-18T19:28:42;3.53;;;1.70;;
77722;SDS011;67811;42.656;23.394;2023-11-18T19:32:48;3.60;;;2.30;;
77722;SDS011;67811;42.656;23.394;2023-11-18T19:36:53;4.03;;;1.97;;
77722;SDS011;67811;42.656;23.394;2023-11-18T19:40:58;4.77;;;2.67;;
77722;SDS011;67811;42.656;23.394;2023-11-18T19:45:04;2.50;;;1.40;;
77722;SDS011;67811;42.656;23.394;2023-11-18T19:49:10;5.75;;;2.22;;
77722;SDS011;67811;42.656;23.394;2023-11-18T19:53:15;3.87;;;2.10;;
77722;SDS011;67811;42.656;23.394;2023-11-18T19:57:21;3.37;;;1.97;;
77722;SDS011;67811;42.656;23.394;2023-11-18T20:01:26;4.00;;;2.03;;
77722;SDS011;67811;42.656;23.394;2023-11-18T20:05:31;3.73;;;2.10;;
77722;SDS011;67811;42.656;23.394;2023-11-18T20:09:37;4.80;;;2.40;;
77722;SDS011;67811;42.656;23.394;2023-11-18T20:13:42;4.10;;;2.27;;
77722;SDS011;67811;42.656;23.394;2023-11-18T20:17:47;3.70;;;2.00;;
77722;SDS011;67811;42.656;23.394;2023-11-18T20:21:53;3.00;;;1.60;;
77722;SDS011;67811;42.656;23.394;2023-11-18T20:25:59;3.95;;;1.63;;
77722;SDS011;67811;42.656;23.394;2023-11-18T20:30:04;3.70;;;2.20;;
77722;SDS011;67811;42.656;23.394;2023-11-18T20:34:10;4.93;;;2.40;;
77722;SDS011;67811;42.656;23.394;2023-11-18T20:38:15;4.13;;;2.50;;
77722;SDS011;67811;42.656;23.394;2023-11-18T20:42:21;4.93;;;2.67;;
77722;SDS011;67811;42.656;23.394;2023-11-18T20:46:26;3.00;;;1.70;;
77722;SDS011;67811;42.656;23.394;2023-11-18T20:50:31;3.67;;;1.90;;
77722;SDS011;67811;42.656;23.394;2023-11-18T20:54:36;5.03;;;2.20;;
77722;SDS011;67811;42.656;23.394;2023-11-18T20:58:42;4.03;;;2.30;;
77722;SDS011;67811;42.656;23.394;2023-11-18T21:02:47;3.47;;;1.90;;
77722;SDS011;67811;42.656;23.394;2023-11-18T21:06:52;3.17;;;1.70;;
77722;SDS011;67811;42.656;23.394;2023-11-18T21:10:58;3.07;;;1.77;;
77722;SDS011;67811;42.656;23.394;2023-11-18T21:15:03;2.60;;;1.37;;
77722;SDS011;67811;42.656;23.394;2023-11-18T21:19:09;3.80;;;2.20;;
77722;SDS011;67811;42.656;23.394;2023-11-18T21:23:14;3.63;;;1.57;;
77722;SDS011;67811;42.656;23.394;2023-11-18T21:27:20;3.93;;;2.00;;
77722;SDS011;67811;42.656;23.394;2023-11-18T21:31:25;4.03;;;2.20;;
77722;SDS011;67811;42.656;23.394;2023-11-18T21:35:30;4.03;;;2.30;;
77722;SDS011;67811;42.656;23.394;2023-11-18T21:39:36;3.50;;;1.93;;
77722;SDS011;67811;42.656;23.394;2023-11-18T21:43:42;3.45;;;2.15;;
77722;SDS011;67811;42.656;23.394;2023-11-18T21:47:47;3.43;;;1.80;;
77722;SDS011;67811;42.656;23.394;2023-11-18T21:51:52;9.07;;;1.67;;
77722;SDS011;67811;42.656;23.394;2023-11-18T21:55:58;3.70;;;2.00;;
77722;SDS011;67811;42.656;23.394;2023-11-18T22:00:04;5.28;;;1.58;;
77722;SDS011;67811;42.656;23.394;2023-11-18T22:04:10;3.70;;;1.85;;
77722;SDS011;67811;42.656;23.394;2023-11-18T22:08:15;3.43;;;2.00;;
77722;SDS011;67811;42.656;23.394;2023-11-18T22:12:21;4.65;;;1.23;;
77722;SDS011;67811;42.656;23.394;2023-11-18T22:16:26;3.93;;;1.80;;
77722;SDS011;67811;42.656;23.394;2023-11-18T22:20:31;3.77;;;1.83;;
77722;SDS011;67811;42.656;23.394;2023-11-18T22:24:36;3.33;;;1.67;;
77722;SDS011;67811;42.656;23.394;2023-11-18T22:28:42;4.43;;;2.23;;
77722;SDS011;67811;42.656;23.394;2023-11-18T22:32:47;4.30;;;1.90;;
77722;SDS011;67811;42.656;23.394;2023-11-18T22:36:52;3.50;;;1.90;;
77722;SDS011;67811;42.656;23.394;2023-11-18T22:40:58;3.43;;;2.00;;
77722;SDS011;67811;42.656;23.394;2023-11-18T22:45:03;3.63;;;2.00;;
77722;SDS011;67811;42.656;23.394;2023-11-18T22:49:09;3.45;;;1.92;;
77722;SDS011;67811;42.656;23.394;2023-11-18T22:53:15;3.27;;;1.93;;
77722;SDS011;67811;42.656;23.394;2023-11-18T22:57:20;4.17;;;2.23;;
77722;SDS011;67811;42.656;23.394;2023-11-18T23:01:25;3.57;;;2.27;;
77722;SDS011;67811;42.656;23.394;2023-11-18T23:05:31;4.00;;;2.57;;
77722;SDS011;67811;42.656;23.394;2023-11-18T23:09:40;4.43;;;1.92;;
77722;SDS011;67811;42.656;23.394;2023-11-18T23:13:45;5.23;;;2.43;;
77722;SDS011;67811;42.656;23.394;2023-11-18T23:17:51;5.17;;;2.77;;
77722;SDS011;67811;42.656;23.394;2023-11-18T23:21:56;4.17;;;2.20;;
77722;SDS011;67811;42.656;23.394;2023-11-18T23:26:01;3.50;;;2.37;;
77722;SDS011;67811;42.656;23.394;2023-11-18T23:30:07;4.03;;;2.22;;
77722;SDS011;67811;42.656;23.394;2023-11-18T23:34:13;4.38;;;2.30;;
77722;SDS011;67811;42.656;23.394;2023-11-18T23:38:19;4.43;;;2.70;;
77722;SDS011;67811;42.656;23.394;2023-11-18T23:42:24;2.30;;;1.63;;
77722;SDS011;67811;42.656;23.394;2023-11-18T23:46:29;3.70;;;2.03;;
77722;SDS011;67811;42.656;23.394;2023-11-18T23:50:34;3.93;;;2.60;;
77722;SDS011;67811;42.656;23.394;2023-11-18T23:54:40;4.17;;;2.10;;
77722;SDS011;67811;42.656;23.394;2023-11-18T23:58:45;4.13;;;2.60;;
